| time (UTC) | temp F | wind direction | speed MPH | gust MPH | rain 1hr in | rain 24hr in | rain mn in | humidity % | barometer mb |
| 20260906180005 | 94 | 283 | 2.0 | 4.0 | 0.00 | 0.00 | 0.00 | 65 | 1009.5 |
| 20260906175005 | 91 | 310 | 1.0 | 4.0 | 0.00 | 0.00 | 0.00 | 72 | 1009.8 |
| 20260906174004 | 93 | 318 | 1.0 | 3.0 | 0.00 | 0.00 | 0.00 | 66 | 1009.7 |
| 20260906173005 | 89 | 351 | 1.0 | 2.0 | 0.00 | 0.00 | 0.00 | 76 | 1009.9 |
| 20260906172004 | 89 | 355 | 1.0 | 4.0 | 0.00 | 0.11 | 0.00 | 76 | 1009.9 |
| 20260906171005 | 90 | 281 | 2.0 | 7.0 | 0.00 | 0.11 | 0.00 | 73 | 1010.0 |
| 20260906170005 | 91 | 347 | 1.0 | 3.0 | 0.00 | 0.11 | 0.00 | 72 | 1010.0 |
| 20260906165004 | 91 | 347 | 2.0 | 6.0 | 0.00 | 0.11 | 0.00 | 71 | 1010.3 |
| 20260906164215 | 90 | 348 | 2.0 | 4.0 | 0.00 | 0.11 | 0.00 | 72 | 1010.5 |
| 20260906163004 | 92 | 331 | 1.0 | 3.0 | 0.00 | 0.11 | 0.00 | 71 | 1010.1 |
| 20260906162004 | 90 | 336 | 1.0 | 3.0 | 0.00 | 0.11 | 0.00 | 73 | 1010.5 |
| 20260906161218 | 89 | 266 | 2.0 | 4.0 | 0.00 | 0.11 | 0.00 | 77 | 1010.6 |
| 20260906160005 | 90 | 317 | 2.0 | 6.0 | 0.00 | 0.11 | 0.00 | 74 | 1010.6 |
| 20260906155004 | 91 | 313 | 2.0 | 6.0 | 0.00 | 0.11 | 0.00 | 73 | 1010.7 |
| 20260906154005 | 92 | 302 | 1.0 | 3.0 | 0.00 | 0.11 | 0.00 | 73 | 1010.5 |
| 20260906153005 | 91 | 258 | 1.0 | 4.0 | 0.00 | 0.11 | 0.00 | 74 | 1010.7 |
| 20260906152218 | 89 | 324 | 2.0 | 3.0 | 0.00 | 0.11 | 0.00 | 75 | 1010.9 |
| 20260906151005 | 90 | 279 | 1.0 | 4.0 | 0.00 | 0.11 | 0.00 | 74 | 1010.7 |
| 20260906150215 | 89 | 308 | 2.0 | 7.0 | 0.00 | 0.11 | 0.00 | 76 | 1010.9 |
| 20260906145005 | 88 | 335 | 2.0 | 9.0 | 0.00 | 0.11 | 0.00 | 80 | 1010.7 |
| 20260906144005 | 88 | 304 | 1.0 | 3.0 | 0.00 | 0.11 | 0.00 | 79 | 1011.1 |
| 20260906143217 | 88 | 311 | 1.0 | 6.0 | 0.00 | 0.11 | 0.00 | 80 | 1011.1 |
| 20260906142005 | 87 | 274 | 2.0 | 8.0 | 0.00 | 0.11 | 0.00 | 80 | 1011.0 |
| 20260906141004 | 87 | 353 | 1.0 | 4.0 | 0.00 | 0.11 | 0.00 | 83 | 1011.2 |
| 20260906140005 | 86 | 229 | 1.0 | 3.0 | 0.00 | 0.11 | 0.00 | 85 | 1011.1 |
| 20260906135004 | 85 | 337 | 1.0 | 4.0 | 0.00 | 0.11 | 0.00 | 87 | 1011.0 |
| 20260906134004 | 84 | 344 | 1.0 | 4.0 | 0.00 | 0.11 | 0.00 | 88 | 1011.1 |
| 20260906133004 | 83 | 235 | 1.0 | 2.0 | 0.00 | 0.11 | 0.00 | 89 | 1011.0 |
| 20260906132005 | 82 | 227 | 0.0 | 2.0 | 0.00 | 0.11 | 0.00 | 90 | 1011.1 |
| 20260906131005 | 82 | 219 | 1.0 | 2.0 | 0.00 | 0.11 | 0.00 | 91 | 1011.4 |
| 20260906130216 | 81 | 279 | 1.0 | 2.0 | 0.00 | 0.11 | 0.00 | 91 | 1011.4 |
| 20260906125005 | 80 | 268 | 1.0 | 2.0 | 0.00 | 0.11 | 0.00 | 94 | 1011.1 |
| 20260906124005 | 79 | 201 | 0.0 | 1.0 | 0.00 | 0.11 | 0.00 | 96 | 1011.1 |
| 20260906123004 | 78 | 204 | 1.0 | 2.0 | 0.00 | 0.11 | 0.00 | 98 | 1011.2 |
| 20260906122005 | 78 | 334 | 0.0 | 4.0 | 0.00 | 0.11 | 0.00 | 99 | 1011.0 |
| 20260906121004 | 77 | 266 | 1.0 | 2.0 | 0.00 | 0.11 | 0.00 | 99 | 1010.9 |
| 20260906120005 | 77 | 199 | 0.0 | 1.0 | 0.00 | 0.11 | 0.00 | 99 | 1011.4 |
| 20260906115004 | 76 | 250 | 0.0 | 2.0 | 0.00 | 0.11 | 0.00 | 99 | 1010.9 |
| 20260906114004 | 76 | 252 | 0.0 | 2.0 | 0.00 | 0.11 | 0.00 | 99 | 1010.7 |
| 20260906113214 | 76 | 0 | 0.0 | 0.0 | 0.00 | 0.11 | 0.00 | 99 | 1010.7 |
| 20260906112004 | 76 | 0 | 0.0 | 0.0 | 0.00 | 0.11 | 0.00 | 99 | 1010.6 |
| 20260906111005 | 76 | 0 | 0.0 | 0.0 | 0.00 | 0.11 | 0.00 | 99 | 1010.5 |
| 20260906110005 | 76 | 0 | 0.0 | 0.0 | 0.00 | 0.11 | 0.00 | 99 | 1010.8 |
| 20260906105004 | 76 | 0 | 0.0 | 0.0 | 0.00 | 0.11 | 0.00 | 99 | 1010.4 |
| 20260906104005 | 76 | 0 | 0.0 | 0.0 | 0.00 | 0.11 | 0.00 | 99 | 1010.4 |
| 20260906103005 | 76 | 0 | 0.0 | 0.0 | 0.00 | 0.11 | 0.00 | 99 | 1010.3 |
| 20260906102005 | 76 | 0 | 0.0 | 0.0 | 0.00 | 0.11 | 0.00 | 99 | 1010.2 |
| 20260906101005 | 76 | 0 | 0.0 | 0.0 | 0.00 | 0.11 | 0.00 | 99 | 1010.2 |
| 20260906100005 | 76 | 0 | 0.0 | 0.0 | 0.00 | 0.11 | 0.00 | 99 | 1010.2 |
| 20260906095005 | 76 | 0 | 0.0 | 0.0 | 0.00 | 0.11 | 0.00 | 99 | 1010.3 |
| 20260906094005 | 76 | 0 | 0.0 | 0.0 | 0.00 | 0.11 | 0.00 | 99 | 1009.8 |
| 20260906093004 | 76 | 0 | 0.0 | 0.0 | 0.00 | 0.11 | 0.00 | 99 | 1010.2 |
| 20260906092005 | 76 | 0 | 0.0 | 0.0 | 0.00 | 0.11 | 0.00 | 99 | 1010.2 |
| 20260906091218 | 76 | 0 | 0.0 | 0.0 | 0.00 | 0.11 | 0.00 | 99 | 1009.9 |
| 20260906090005 | 76 | 0 | 0.0 | 0.0 | 0.00 | 0.11 | 0.00 | 99 | 1009.9 |
| 20260906085005 | 76 | 0 | 0.0 | 0.0 | 0.00 | 0.11 | 0.00 | 99 | 1010.0 |
| 20260906084005 | 76 | 0 | 0.0 | 0.0 | 0.00 | 0.11 | 0.00 | 98 | 1009.8 |
| 20260906083005 | 76 | 0 | 0.0 | 0.0 | 0.00 | 0.11 | 0.00 | 98 | 1009.7 |
| 20260906082004 | 76 | 227 | 0.0 | 1.0 | 0.00 | 0.11 | 0.00 | 98 | 1009.6 |
| 20260906081004 | 76 | 228 | 0.0 | 1.0 | 0.00 | 0.11 | 0.00 | 98 | 1009.8 |
| 20260906080005 | 76 | 222 | 0.0 | 1.0 | 0.00 | 0.11 | 0.00 | 98 | 1009.6 |
| 20260906075005 | 76 | 0 | 0.0 | 0.0 | 0.00 | 0.11 | 0.00 | 98 | 1009.4 |
| 20260906074005 | 76 | 205 | 0.0 | 1.0 | 0.00 | 0.11 | 0.00 | 98 | 1009.4 |
| 20260906073005 | 77 | 220 | 0.0 | 1.0 | 0.00 | 0.11 | 0.00 | 98 | 1009.4 |
| 20260906072218 | 77 | 230 | 0.0 | 1.0 | 0.00 | 0.11 | 0.00 | 97 | 1009.4 |
| 20260906071005 | 77 | 230 | 0.0 | 2.0 | 0.00 | 0.11 | 0.00 | 97 | 1009.3 |
| 20260906070005 | 77 | 218 | 0.0 | 2.0 | 0.00 | 0.11 | 0.00 | 97 | 1009.5 |
| 20260906065004 | 77 | 0 | 0.0 | 0.0 | 0.00 | 0.11 | 0.00 | 97 | 1009.6 |
| 20260906064005 | 77 | 177 | 0.0 | 1.0 | 0.00 | 0.11 | 0.00 | 97 | 1009.7 |
| 20260906063217 | 77 | 207 | 0.0 | 2.0 | 0.00 | 0.11 | 0.00 | 96 | 1010.0 |
| 20260906062218 | 77 | 223 | 0.0 | 2.0 | 0.00 | 0.11 | 0.00 | 96 | 1009.9 |
| 20260906061214 | 78 | 237 | 1.0 | 3.0 | 0.00 | 0.11 | 0.00 | 96 | 1009.8 |
| 20260906060215 | 78 | 233 | 2.0 | 3.0 | 0.00 | 0.11 | 0.00 | 96 | 1009.9 |
| 20260906055005 | 78 | 218 | 1.0 | 3.0 | 0.00 | 0.11 | 0.00 | 97 | 1010.1 |
| 20260906054004 | 78 | 230 | 1.0 | 4.0 | 0.00 | 0.11 | 0.00 | 97 | 1010.1 |
| 20260906053004 | 78 | 214 | 1.0 | 2.0 | 0.00 | 0.11 | 0.00 | 97 | 1010.6 |
| 20260906052005 | 77 | 218 | 1.0 | 2.0 | 0.00 | 0.11 | 0.00 | 97 | 1010.6 |
| 20260906051215 | 77 | 215 | 1.0 | 2.0 | 0.00 | 0.11 | 0.00 | 97 | 1011.0 |
| 20260906050005 | 77 | 163 | 0.0 | 1.0 | 0.00 | 0.11 | 0.00 | 97 | 1010.8 |
| 20260906045004 | 77 | 185 | 0.0 | 1.0 | 0.00 | 0.11 | 0.00 | 97 | 1010.8 |
| 20260906044005 | 77 | 149 | 0.0 | 1.0 | 0.00 | 0.11 | 0.00 | 97 | 1011.0 |
| 20260906043004 | 77 | 156 | 0.0 | 1.0 | 0.00 | 0.11 | 0.00 | 97 | 1010.9 |
| 20260906042005 | 77 | 128 | 0.0 | 2.0 | 0.00 | 0.11 | 0.00 | 97 | 1011.3 |
| 20260906041005 | 77 | 0 | 0.0 | 0.0 | 0.00 | 0.11 | 0.00 | 97 | 1011.2 |
| 20260906040028 | 77 | 159 | 0.0 | 1.0 | 0.00 | 0.11 | 0.00 | 97 | 1011.4 |
| 20260906035004 | 77 | 0 | 0.0 | 0.0 | 0.00 | 0.11 | 0.11 | 97 | 1011.6 |
| 20260906034213 | 77 | 160 | 0.0 | 1.0 | 0.00 | 0.11 | 0.11 | 97 | 1011.2 |
| 20260906033005 | 77 | 0 | 0.0 | 0.0 | 0.00 | 0.11 | 0.11 | 97 | 1011.4 |
| 20260906032004 | 78 | 0 | 0.0 | 0.0 | 0.00 | 0.11 | 0.11 | 97 | 1011.2 |
| 20260906031005 | 78 | 0 | 0.0 | 0.0 | 0.00 | 0.11 | 0.11 | 97 | 1011.2 |
| 20260906030005 | 78 | 0 | 0.0 | 0.0 | 0.00 | 0.11 | 0.11 | 96 | 1011.2 |
| 20260906025005 | 78 | 0 | 0.0 | 0.0 | 0.00 | 0.11 | 0.11 | 96 | 1011.3 |
| 20260906024005 | 78 | 0 | 0.0 | 0.0 | 0.00 | 0.12 | 0.11 | 96 | 1011.3 |
| 20260906023004 | 78 | 184 | 0.0 | 2.0 | 0.00 | 0.12 | 0.11 | 96 | 1011.0 |
| 20260906022005 | 78 | 0 | 0.0 | 0.0 | 0.00 | 0.12 | 0.11 | 96 | 1011.2 |
| 20260906021004 | 78 | 189 | 0.0 | 1.0 | 0.00 | 0.13 | 0.11 | 96 | 1010.6 |
| 20260906020005 | 79 | 173 | 0.0 | 2.0 | 0.00 | 0.14 | 0.11 | 97 | 1010.9 |
| 20260906015005 | 79 | 142 | 0.0 | 1.0 | 0.00 | 0.15 | 0.11 | 97 | 1010.9 |
| 20260906014005 | 79 | 157 | 0.0 | 1.0 | 0.00 | 0.16 | 0.11 | 96 | 1010.5 |
| 20260906013005 | 79 | 157 | 0.0 | 1.0 | 0.00 | 0.18 | 0.11 | 96 | 1010.3 |
| 20260906012004 | 79 | 158 | 0.0 | 1.0 | 0.00 | 0.18 | 0.11 | 96 | 1010.2 |
| 20260906011005 | 80 | 171 | 0.0 | 2.0 | 0.00 | 0.18 | 0.11 | 96 | 1010.4 |
| 20260906010005 | 80 | 158 | 0.0 | 2.0 | 0.00 | 0.18 | 0.11 | 95 | 1010.1 |
| 20260906005005 | 80 | 138 | 0.0 | 2.0 | 0.00 | 0.19 | 0.11 | 95 | 1010.2 |
| 20260906004004 | 80 | 147 | 0.0 | 2.0 | 0.00 | 0.19 | 0.11 | 95 | 1009.9 |
| 20260906003005 | 80 | 186 | 0.0 | 2.0 | 0.00 | 0.20 | 0.11 | 95 | 1010.2 |
| 20260906002217 | 80 | 146 | 0.0 | 2.0 | 0.00 | 0.20 | 0.11 | 95 | 1010.0 |
| 20260906001218 | 80 | 157 | 0.0 | 2.0 | 0.00 | 0.21 | 0.11 | 94 | 1010.0 |
| 20260906000004 | 81 | 151 | 0.0 | 3.0 | 0.00 | 0.22 | 0.11 | 94 | 1010.1 |
| 20260905235005 | 81 | 147 | 0.0 | 2.0 | 0.00 | 0.24 | 0.11 | 94 | 1009.8 |
| 20260905234005 | 82 | 154 | 1.0 | 3.0 | 0.00 | 0.24 | 0.11 | 93 | 1010.1 |
| 20260905233004 | 82 | 125 | 0.0 | 1.0 | 0.00 | 0.26 | 0.11 | 94 | 1009.9 |
| 20260905232005 | 83 | 148 | 0.0 | 2.0 | 0.00 | 0.29 | 0.11 | 93 | 1010.0 |
| 20260905231004 | 83 | 195 | 0.0 | 2.0 | 0.00 | 0.29 | 0.11 | 92 | 1010.0 |
| 20260905230005 | 84 | 204 | 0.0 | 1.0 | 0.00 | 0.29 | 0.11 | 91 | 1010.3 |
| 20260905225004 | 84 | 194 | 1.0 | 2.0 | 0.00 | 0.29 | 0.11 | 90 | 1009.9 |
| 20260905224005 | 84 | 146 | 0.0 | 2.0 | 0.00 | 0.30 | 0.11 | 89 | 1010.0 |
| 20260905223004 | 84 | 105 | 0.0 | 1.0 | 0.00 | 0.31 | 0.11 | 90 | 1009.8 |
| 20260905222218 | 84 | 124 | 1.0 | 2.0 | 0.00 | 0.32 | 0.11 | 90 | 1010.3 |
| 20260905221214 | 84 | 170 | 0.0 | 2.0 | 0.00 | 0.39 | 0.11 | 90 | 1010.0 |
| 20260905220005 | 84 | 156 | 1.0 | 2.0 | 0.00 | 0.50 | 0.11 | 91 | 1010.1 |
| 20260905215005 | 83 | 139 | 0.0 | 2.0 | 0.00 | 0.69 | 0.11 | 91 | 1010.6 |
| 20260905214005 | 83 | 153 | 1.0 | 3.0 | 0.00 | 1.00 | 0.11 | 91 | 1010.4 |
| 20260905213005 | 82 | 163 | 1.0 | 2.0 | 0.00 | 1.03 | 0.11 | 90 | 1010.5 |
| 20260905212004 | 82 | 141 | 0.0 | 2.0 | 0.00 | 1.03 | 0.11 | 90 | 1010.7 |
| 20260905211004 | 82 | 74 | 0.0 | 1.0 | 0.00 | 1.03 | 0.11 | 90 | 1010.8 |
| 20260905210005 | 81 | 71 | 0.0 | 2.0 | 0.00 | 1.03 | 0.11 | 90 | 1010.9 |
| 20260905205005 | 81 | 78 | 1.0 | 2.0 | 0.00 | 1.03 | 0.11 | 91 | 1011.0 |
| 20260905204004 | 81 | 78 | 1.0 | 3.0 | 0.00 | 1.03 | 0.11 | 92 | 1010.8 |
| 20260905203005 | 81 | 73 | 1.0 | 2.0 | 0.00 | 1.03 | 0.11 | 91 | 1010.9 |
| 20260905202005 | 81 | 87 | 1.0 | 6.0 | 0.00 | 1.03 | 0.11 | 90 | 1010.8 |
| 20260905201005 | 82 | 83 | 1.0 | 6.0 | 0.00 | 1.03 | 0.11 | 91 | 1010.9 |
| 20260905200005 | 83 | 338 | 1.0 | 2.0 | 0.00 | 1.03 | 0.11 | 90 | 1011.1 |
| 20260905195005 | 83 | 355 | 1.0 | 2.0 | 0.00 | 1.03 | 0.11 | 90 | 1011.2 |
| 20260905194005 | 82 | 352 | 1.0 | 2.0 | 0.00 | 1.03 | 0.11 | 89 | 1011.3 |
| 20260905193004 | 82 | 357 | 2.0 | 7.0 | 0.00 | 1.03 | 0.11 | 89 | 1011.6 |
| 20260905192005 | 83 | 347 | 1.0 | 4.0 | 0.00 | 1.03 | 0.11 | 90 | 1011.0 |
| 20260905191004 | 83 | 219 | 0.0 | 2.0 | 0.00 | 1.03 | 0.11 | 91 | 1011.1 |
| 20260905190005 | 83 | 176 | 0.0 | 1.0 | 0.00 | 1.03 | 0.11 | 92 | 1011.3 |
| 20260905185005 | 82 | 80 | 0.0 | 2.0 | 0.00 | 1.03 | 0.11 | 92 | 1011.5 |
| 20260905184214 | 82 | 321 | 0.0 | 1.0 | 0.00 | 1.03 | 0.11 | 91 | 1011.8 |
| 20260905183004 | 80 | 102 | 0.0 | 2.0 | 0.00 | 1.03 | 0.11 | 92 | 1011.0 |
| 20260905182216 | 81 | 24 | 0.0 | 3.0 | 0.09 | 1.03 | 0.11 | 93 | 1011.0 |
| 20260905181005 | 80 | 128 | 0.0 | 1.0 | 0.11 | 1.03 | 0.11 | 94 | 1011.6 |